createdAt,value
2023-04-18T00:00:39.932Z,6.73
2023-04-18T00:03:09.967Z,6.43
2023-04-18T00:05:40.602Z,6.51
2023-04-18T00:08:10.263Z,6.74
2023-04-18T00:10:39.969Z,7.03
2023-04-18T00:13:12.624Z,7.10
2023-04-18T00:15:44.013Z,6.96
2023-04-18T00:18:17.065Z,6.42
2023-04-18T00:20:47.163Z,6.61
2023-04-18T00:23:16.945Z,6.73
2023-04-18T00:25:46.602Z,6.33
2023-04-18T00:28:18.900Z,6.55
2023-04-18T00:30:49.135Z,6.85
2023-04-18T00:33:19.049Z,6.67
2023-04-18T00:35:48.708Z,6.51
2023-04-18T00:38:18.369Z,6.39
2023-04-18T00:40:48.075Z,6.57
2023-04-18T00:43:20.368Z,6.23
2023-04-18T00:45:50.118Z,6.27
2023-04-18T00:48:20.379Z,6.51
2023-04-18T00:50:50.142Z,6.62
2023-04-18T00:53:20.028Z,6.60
2023-04-18T00:55:50.251Z,6.54
2023-04-18T00:58:23.201Z,6.44
2023-04-18T01:00:54.913Z,6.70
2023-04-18T01:03:25.889Z,6.65
2023-04-18T01:05:57.652Z,6.73
2023-04-18T01:08:28.446Z,6.93
2023-04-18T01:11:00.935Z,7.25
2023-04-18T01:13:33.169Z,6.43
2023-04-18T01:16:02.911Z,6.22
2023-04-18T01:18:35.373Z,6.37
2023-04-18T01:21:06.305Z,6.45
2023-04-18T01:23:36.050Z,6.19
2023-04-18T01:26:08.496Z,6.27
2023-04-18T01:28:39.811Z,5.91
2023-04-18T01:31:10.959Z,6.20
2023-04-18T01:33:40.844Z,6.31
2023-04-18T01:36:10.954Z,6.02
2023-04-18T01:38:40.639Z,6.36
2023-04-18T01:41:12.886Z,6.53
2023-04-18T01:43:42.482Z,6.25
2023-04-18T01:46:12.436Z,6.25
2023-04-18T01:48:42.101Z,6.39
2023-04-18T01:51:11.923Z,6.27
2023-04-18T01:53:41.586Z,6.18
2023-04-18T01:56:14.695Z,6.23
2023-04-18T01:58:44.430Z,6.34
2023-04-18T02:01:15.869Z,6.21
2023-04-18T02:03:45.777Z,6.36
2023-04-18T02:06:15.824Z,6.28
2023-04-18T02:08:45.502Z,6.12
2023-04-18T02:11:17.707Z,6.19
2023-04-18T02:13:48.160Z,6.50
2023-04-18T02:16:17.959Z,6.54
2023-04-18T02:18:47.749Z,6.29
2023-04-18T02:21:17.457Z,6.27
2023-04-18T02:23:47.136Z,6.46
2023-04-18T02:26:19.479Z,6.27
2023-04-18T02:28:49.136Z,6.12
2023-04-18T02:31:20.305Z,6.30
2023-04-18T02:33:50.209Z,6.48
2023-04-18T02:36:20.022Z,6.31
2023-04-18T02:38:49.713Z,6.28
2023-04-18T02:41:25.957Z,6.41
2023-04-18T02:43:58.292Z,6.62
2023-04-18T02:46:28.231Z,6.25
2023-04-18T02:48:58.033Z,6.68
2023-04-18T02:51:28.237Z,6.83
2023-04-18T02:54:00.931Z,6.55
2023-04-18T02:56:43.073Z,6.34
2023-04-18T02:59:19.678Z,6.38
2023-04-18T03:02:07.875Z,6.47
2023-04-18T03:04:40.559Z,6.42
2023-04-18T03:07:11.751Z,6.52
2023-04-18T03:09:42.454Z,6.15
2023-04-18T03:12:23.294Z,5.91
2023-04-18T03:14:52.925Z,6.22
2023-04-18T03:17:23.888Z,6.08
2023-04-18T03:19:53.606Z,6.00
2023-04-18T03:22:23.719Z,6.38
2023-04-18T03:25:00.252Z,6.62
2023-04-18T03:27:46.806Z,6.84
2023-04-18T03:30:19.943Z,6.37
2023-04-18T03:32:56.345Z,6.18
2023-04-18T03:35:26.191Z,6.24
2023-04-18T03:37:55.947Z,6.24
2023-04-18T03:40:32.072Z,6.09
2023-04-18T03:43:10.881Z,6.27
2023-04-18T03:45:40.911Z,6.25
2023-04-18T03:48:10.559Z,6.10
2023-04-18T03:50:44.508Z,6.04
2023-04-18T03:53:14.560Z,6.05
2023-04-18T03:55:44.678Z,6.30
2023-04-18T03:58:23.868Z,5.95
2023-04-18T04:00:54.720Z,6.35
2023-04-18T04:03:25.324Z,6.43
2023-04-18T04:05:55.256Z,6.27
2023-04-18T04:08:27.666Z,6.23
2023-04-18T04:10:58.023Z,6.55
2023-04-18T04:13:30.401Z,6.68
2023-04-18T04:16:00.813Z,6.58
2023-04-18T04:18:31.794Z,6.88
2023-04-18T04:21:03.756Z,6.40
2023-04-18T04:23:46.626Z,6.64
2023-04-18T04:26:27.794Z,6.51
2023-04-18T04:29:13.976Z,6.44
2023-04-18T04:31:45.442Z,6.49
2023-04-18T04:34:17.601Z,6.23
2023-04-18T04:36:48.332Z,6.25
2023-04-18T04:39:18.130Z,6.15
2023-04-18T04:42:16.800Z,6.30
2023-04-18T04:45:00.328Z,6.01
2023-04-18T04:47:30.133Z,6.39
2023-04-18T04:49:59.812Z,6.10
2023-04-18T04:52:29.522Z,6.18
2023-04-18T04:54:59.226Z,6.17
2023-04-18T04:57:29.463Z,5.99
2023-04-18T05:00:01.693Z,6.11
2023-04-18T05:02:32.092Z,6.19
2023-04-18T05:05:02.630Z,6.46
2023-04-18T05:07:33.651Z,6.38
2023-04-18T05:10:03.284Z,6.21
2023-04-18T05:12:32.930Z,6.14
2023-04-18T05:15:05.603Z,6.12
2023-04-18T05:17:35.361Z,6.22
2023-04-18T05:20:05.071Z,6.26
2023-04-18T05:22:35.271Z,6.55
2023-04-18T05:25:05.495Z,6.37
2023-04-18T05:27:35.128Z,6.54
2023-04-18T05:30:08.435Z,6.29
2023-04-18T05:32:39.230Z,6.20
2023-04-18T05:35:09.781Z,6.21
2023-04-18T05:37:39.460Z,6.15
2023-04-18T05:40:12.220Z,6.20
2023-04-18T05:42:41.954Z,6.18
2023-04-18T05:45:14.823Z,6.29
2023-04-18T05:47:44.569Z,6.70
2023-04-18T05:50:14.262Z,6.25
2023-04-18T05:52:44.206Z,6.50
2023-04-18T05:55:14.107Z,6.68
2023-04-18T05:57:43.824Z,6.39
2023-04-18T06:00:17.578Z,6.88
2023-04-18T06:02:47.405Z,6.74
2023-04-18T06:05:17.375Z,7.16
2023-04-18T06:07:48.247Z,6.63
2023-04-18T06:10:17.972Z,6.35
2023-04-18T06:12:47.906Z,6.19
2023-04-18T06:15:20.399Z,6.23
2023-04-18T06:17:50.069Z,6.54
2023-04-18T06:20:19.763Z,6.53
2023-04-18T06:22:49.411Z,6.43
2023-04-18T06:25:19.589Z,6.67
2023-04-18T06:27:49.298Z,6.39
2023-04-18T06:30:22.339Z,6.35
2023-04-18T06:32:52.068Z,6.36
2023-04-18T06:35:21.845Z,6.89
2023-04-18T06:37:52.017Z,6.53
2023-04-18T06:40:21.837Z,6.77
2023-04-18T06:42:51.771Z,6.44
2023-04-18T06:45:24.526Z,6.72
2023-04-18T06:47:54.356Z,6.86
2023-04-18T06:50:24.036Z,6.65
2023-04-18T06:52:53.646Z,6.30
2023-04-18T06:55:23.548Z,6.34
2023-04-18T06:57:53.243Z,6.55
2023-04-18T07:00:25.964Z,6.70
2023-04-18T07:02:55.824Z,6.74
2023-04-18T07:05:25.720Z,6.71
2023-04-18T07:07:55.361Z,6.57
2023-04-18T07:10:25.126Z,6.77
2023-04-18T07:12:54.766Z,6.79
2023-04-18T07:15:26.988Z,6.88
2023-04-18T07:17:56.687Z,6.88
2023-04-18T07:20:26.392Z,6.62
2023-04-18T07:22:56.120Z,6.54
2023-04-18T07:25:25.818Z,6.57
2023-04-18T07:27:56.040Z,6.85
2023-04-18T07:30:28.406Z,6.78
2023-04-18T07:32:58.158Z,7.10
2023-04-18T07:35:27.810Z,6.59
2023-04-18T07:37:57.514Z,6.49
2023-04-18T07:40:27.246Z,6.78
2023-04-18T07:42:56.957Z,6.97
2023-04-18T07:45:29.243Z,6.94
2023-04-18T07:47:58.989Z,7.31
2023-04-18T07:50:28.695Z,7.40
2023-04-18T07:52:58.379Z,7.35
2023-04-18T07:55:28.089Z,7.25
2023-04-18T07:57:57.755Z,7.15
2023-04-18T08:00:32.788Z,6.74
2023-04-18T08:03:02.683Z,7.38
2023-04-18T08:05:32.621Z,7.29
2023-04-18T08:08:02.464Z,7.31
2023-04-18T08:10:32.621Z,6.99
2023-04-18T08:13:02.514Z,6.93
2023-04-18T08:15:35.046Z,7.08
2023-04-18T08:18:04.780Z,7.80
2023-04-18T08:20:35.412Z,8.19
2023-04-18T08:23:08.514Z,8.26
2023-04-18T08:25:39.342Z,8.59
2023-04-18T08:28:09.286Z,8.83
2023-04-18T08:30:42.532Z,8.98
2023-04-18T08:33:12.491Z,9.01
2023-04-18T08:35:42.172Z,8.14
2023-04-18T08:38:11.950Z,8.36
2023-04-18T08:40:41.828Z,7.92
2023-04-18T08:43:14.195Z,8.78
2023-04-18T08:45:48.505Z,9.46
2023-04-18T08:48:19.086Z,8.77
2023-04-18T08:50:48.778Z,8.40
2023-04-18T08:53:18.701Z,8.57
2023-04-18T08:55:50.708Z,8.64
2023-04-18T08:58:27.218Z,8.69
2023-04-18T09:00:59.465Z,8.53
2023-04-18T09:03:40.232Z,8.52
2023-04-18T09:06:16.473Z,8.41
2023-04-18T09:08:47.177Z,8.27
2023-04-18T09:11:24.172Z,7.83
2023-04-18T09:13:56.123Z,8.00
2023-04-18T09:16:31.460Z,8.28
2023-04-18T09:19:18.637Z,8.50
2023-04-18T09:21:49.040Z,8.80
2023-04-18T09:24:21.249Z,9.17
2023-04-18T09:26:54.091Z,8.21
2023-04-18T09:29:25.188Z,9.17
2023-04-18T09:32:05.973Z,9.62
2023-04-18T09:34:38.464Z,10.15
2023-04-18T09:37:10.462Z,10.15
2023-04-18T09:39:41.231Z,9.49
2023-04-18T09:42:11.296Z,9.42
2023-04-18T09:44:41.270Z,9.21
2023-04-18T09:47:13.546Z,9.72
2023-04-18T09:49:43.248Z,9.96
2023-04-18T09:52:12.994Z,9.65
2023-04-18T09:54:45.215Z,9.99
2023-04-18T09:57:17.302Z,9.56
2023-04-18T09:59:52.590Z,9.19
2023-04-18T10:02:25.895Z,9.37
2023-04-18T10:04:58.722Z,9.27
2023-04-18T10:07:30.043Z,9.29
2023-04-18T10:09:59.669Z,9.08
2023-04-18T10:12:29.660Z,9.84
2023-04-18T10:14:59.670Z,9.40
2023-04-18T10:17:32.213Z,9.21
2023-04-18T10:20:11.238Z,9.70
2023-04-18T10:22:40.958Z,9.69
2023-04-18T10:25:11.387Z,10.22
2023-04-18T10:28:00.146Z,9.94
2023-04-18T10:30:56.123Z,10.09
2023-04-18T10:33:32.232Z,10.09
2023-04-18T10:36:08.514Z,10.13
2023-04-18T10:38:45.309Z,9.82
2023-04-18T10:41:17.150Z,9.73
2023-04-18T10:44:13.445Z,9.72
2023-04-18T10:46:44.814Z,9.59
2023-04-18T10:49:24.464Z,9.38
2023-04-18T10:51:58.593Z,9.36
2023-04-18T10:54:35.854Z,9.29
2023-04-18T10:57:08.181Z,9.29
2023-04-18T10:59:41.179Z,9.06
2023-04-18T11:02:26.426Z,9.31
2023-04-18T11:05:00.145Z,9.52
2023-04-18T11:07:36.968Z,9.19
2023-04-18T11:10:07.000Z,9.28
2023-04-18T11:12:38.888Z,9.21
2023-04-18T11:15:14.616Z,9.77
2023-04-18T11:17:44.441Z,9.44
2023-04-18T11:20:17.520Z,9.50
2023-04-18T11:22:52.432Z,9.72
2023-04-18T11:25:24.859Z,9.74
2023-04-18T11:27:55.284Z,10.39
2023-04-18T11:30:25.084Z,10.15
2023-04-18T11:32:56.117Z,10.29
2023-04-18T11:35:28.920Z,10.52
2023-04-18T11:37:58.690Z,9.77
2023-04-18T11:40:28.604Z,9.60
2023-04-18T11:42:58.319Z,9.73
2023-04-18T11:45:28.223Z,9.66
2023-04-18T11:47:59.742Z,9.95
2023-04-18T11:50:38.043Z,9.85
2023-04-18T11:53:07.709Z,9.70
2023-04-18T11:55:37.370Z,9.88
2023-04-18T11:58:07.223Z,9.47
2023-04-18T12:00:38.765Z,10.39
2023-04-18T12:03:13.360Z,9.83
2023-04-18T12:05:48.159Z,9.98
2023-04-18T12:08:23.062Z,10.11
2023-04-18T12:10:54.616Z,10.53
2023-04-18T12:13:27.918Z,10.47
2023-04-18T12:15:57.585Z,10.38
2023-04-18T12:18:27.605Z,10.86
2023-04-18T12:21:02.164Z,10.54
2023-04-18T12:23:33.883Z,10.14
2023-04-18T12:26:04.980Z,10.16
2023-04-18T12:28:35.368Z,10.83
2023-04-18T12:31:06.085Z,10.76
2023-04-18T12:33:36.275Z,11.11
2023-04-18T12:36:09.831Z,11.15
2023-04-18T12:38:39.722Z,10.66
2023-04-18T12:41:09.452Z,10.93
2023-04-18T12:43:39.103Z,11.92
2023-04-18T12:46:08.868Z,12.07
2023-04-18T12:48:38.543Z,11.67
2023-04-18T12:51:10.882Z,12.01
2023-04-18T12:53:40.726Z,11.07
2023-04-18T12:56:10.999Z,11.45
2023-04-18T12:58:41.041Z,11.93
2023-04-18T13:01:10.711Z,11.25
2023-04-18T13:03:40.611Z,12.00
2023-04-18T13:06:12.967Z,11.02
2023-04-18T13:08:42.827Z,10.42
2023-04-18T13:11:12.720Z,10.76
2023-04-18T13:13:42.356Z,11.66
2023-04-18T13:16:12.528Z,11.77
2023-04-18T13:18:42.297Z,11.63
2023-04-18T13:21:14.568Z,11.99
2023-04-18T13:23:44.208Z,11.99
2023-04-18T13:26:13.937Z,12.04
2023-04-18T13:28:43.638Z,12.16
2023-04-18T13:31:14.515Z,11.71
2023-04-18T13:33:46.081Z,11.85
2023-04-18T13:36:18.308Z,12.08
2023-04-18T13:38:48.486Z,12.37
2023-04-18T13:41:18.319Z,12.58
2023-04-18T13:43:47.978Z,11.92
2023-04-18T13:46:17.756Z,11.93
2023-04-18T13:48:47.520Z,12.38
2023-04-18T13:51:19.800Z,12.46
2023-04-18T13:53:49.443Z,12.30
2023-04-18T13:56:19.070Z,12.29
2023-04-18T13:58:48.689Z,12.81
2023-04-18T14:01:19.163Z,12.58
2023-04-18T14:03:49.283Z,12.59
2023-04-18T14:06:21.624Z,12.59
2023-04-18T14:08:52.224Z,12.97
2023-04-18T14:11:22.859Z,12.50
2023-04-18T14:13:52.505Z,12.69
2023-04-18T14:16:22.274Z,12.46
2023-04-18T14:18:51.970Z,12.12
2023-04-18T14:21:24.224Z,12.40
2023-04-18T14:23:55.385Z,12.44
2023-04-18T14:26:25.686Z,12.38
2023-04-18T14:28:55.326Z,11.99
2023-04-18T14:31:25.118Z,11.63
2023-04-18T14:33:55.269Z,11.85
2023-04-18T14:36:27.828Z,11.83
2023-04-18T14:38:57.577Z,11.54
2023-04-18T14:41:27.516Z,11.46
2023-04-18T14:43:57.231Z,11.59
2023-04-18T14:46:28.455Z,11.21
2023-04-18T14:48:58.428Z,11.18
2023-04-18T14:51:31.361Z,11.11
2023-04-18T14:54:01.301Z,11.13
2023-04-18T15:10:25.198Z,11.32
2023-04-18T15:12:54.897Z,11.52
2023-04-18T15:15:25.357Z,11.14
2023-04-18T15:17:55.201Z,11.56
2023-04-18T15:20:25.411Z,11.24
2023-04-18T15:22:55.108Z,11.31
2023-04-18T15:25:27.567Z,11.47
2023-04-18T15:27:57.407Z,11.30
2023-04-18T15:30:27.600Z,11.27
2023-04-18T15:32:57.426Z,11.42
2023-04-18T15:35:27.443Z,11.13
2023-04-18T15:37:57.642Z,11.28
2023-04-18T15:40:30.539Z,11.29
2023-04-18T15:43:00.364Z,11.31
2023-04-18T15:45:30.062Z,11.24
2023-04-18T15:47:59.829Z,11.26
2023-04-18T15:50:32.124Z,11.37
2023-04-18T15:53:03.061Z,11.17
2023-04-18T15:55:35.475Z,11.09
2023-04-18T15:58:05.338Z,11.04
2023-04-18T16:00:35.033Z,11.15
2023-04-18T16:03:04.951Z,11.13
2023-04-18T16:05:34.905Z,11.28
2023-04-18T16:08:04.975Z,11.43
2023-04-18T16:10:37.440Z,11.21
2023-04-18T16:13:07.353Z,11.23
2023-04-18T16:15:41.611Z,11.35
2023-04-18T16:18:11.467Z,11.14
2023-04-18T16:20:41.126Z,11.26
2023-04-18T16:23:10.873Z,11.22
2023-04-18T16:25:43.137Z,11.25
2023-04-18T16:28:12.844Z,11.55
2023-04-18T16:30:43.959Z,11.30
2023-04-18T16:33:13.771Z,11.33
2023-04-18T16:35:43.632Z,11.19
2023-04-18T16:38:13.301Z,11.04
2023-04-18T16:40:45.522Z,11.30
2023-04-18T16:43:15.196Z,11.04
2023-04-18T16:45:44.882Z,11.39
2023-04-18T16:48:14.549Z,11.11
2023-04-18T16:50:45.759Z,11.25
2023-04-18T16:53:15.458Z,11.08
2023-04-18T16:55:47.773Z,11.15
2023-04-18T16:58:17.434Z,11.34
2023-04-18T17:00:47.506Z,11.09
2023-04-18T17:03:17.254Z,11.11
2023-04-18T17:05:47.032Z,11.34
2023-04-18T17:08:16.761Z,10.97
2023-04-18T17:10:49.122Z,11.40
2023-04-18T17:13:18.822Z,11.47
2023-04-18T17:15:48.582Z,11.52
2023-04-18T17:18:18.310Z,11.33
2023-04-18T17:20:48.000Z,11.17
2023-04-18T17:23:17.644Z,10.97
2023-04-18T17:25:50.015Z,11.26
2023-04-18T17:28:19.740Z,11.60
2023-04-18T17:30:50.426Z,11.78
2023-04-18T17:33:20.231Z,11.71
2023-04-18T17:35:50.493Z,11.79
2023-04-18T17:38:20.177Z,11.47
2023-04-18T17:41:01.606Z,11.66
2023-04-18T17:43:31.644Z,11.30
2023-04-18T17:46:03.933Z,11.92
2023-04-18T17:48:33.671Z,12.11
2023-04-18T17:51:03.709Z,11.92
2023-04-18T17:53:33.531Z,12.31
2023-04-18T17:56:06.389Z,12.39
2023-04-18T17:58:36.303Z,12.37
2023-04-18T18:01:06.471Z,12.04
2023-04-18T18:03:36.470Z,12.40
2023-04-18T18:06:06.560Z,12.48
2023-04-18T18:08:36.212Z,12.72
2023-04-18T18:11:08.862Z,12.88
2023-04-18T18:13:39.056Z,12.91
2023-04-18T18:16:09.646Z,12.87
2023-04-18T18:18:39.647Z,12.89
2023-04-18T18:21:09.463Z,12.75
2023-04-18T18:23:39.206Z,12.36
2023-04-18T18:26:11.663Z,12.97
2023-04-18T18:28:41.409Z,12.55
2023-04-18T18:31:11.125Z,12.16
2023-04-18T18:33:40.937Z,12.31
2023-04-18T18:36:10.711Z,12.06
2023-04-18T18:38:40.382Z,12.61
2023-04-18T18:41:12.686Z,12.95
2023-04-18T18:43:42.887Z,12.88
2023-04-18T18:46:12.623Z,12.81
2023-04-18T18:48:42.366Z,12.58
2023-04-18T18:51:12.333Z,13.06
2023-04-18T18:53:42.044Z,13.04
2023-04-18T18:56:14.583Z,12.51
2023-04-18T18:58:45.034Z,12.24
2023-04-18T19:01:14.803Z,11.46
2023-04-18T19:03:44.854Z,11.53
2023-04-18T19:06:15.029Z,11.61
2023-04-18T19:08:44.956Z,11.93
2023-04-18T19:11:18.583Z,11.44
2023-04-18T19:13:48.397Z,11.34
2023-04-18T19:16:18.337Z,11.80
2023-04-18T19:18:50.747Z,12.58
2023-04-18T19:21:20.762Z,12.17
2023-04-18T19:23:50.602Z,12.36
2023-04-18T19:26:23.241Z,12.92
2023-04-18T19:28:53.096Z,12.49
2023-04-18T19:31:22.928Z,13.38
2023-04-18T19:33:52.907Z,12.57
2023-04-18T19:36:22.708Z,12.88
2023-04-18T19:38:52.648Z,12.12
2023-04-18T19:41:25.061Z,12.56
2023-04-18T19:43:55.367Z,12.26
2023-04-18T19:46:25.149Z,11.52
2023-04-18T19:48:54.968Z,11.66
2023-04-18T19:51:24.871Z,11.20
2023-04-18T19:53:55.577Z,11.22
2023-04-18T19:56:28.072Z,11.15
2023-04-18T19:58:58.206Z,10.93
2023-04-18T20:01:28.128Z,10.91
2023-04-18T20:04:00.601Z,10.74
2023-04-18T20:06:31.115Z,10.79
2023-04-18T20:09:00.999Z,10.79
2023-04-18T20:11:33.542Z,10.87
2023-04-18T20:14:04.567Z,10.79
2023-04-18T20:16:34.688Z,10.86
2023-04-18T20:19:05.796Z,10.88
2023-04-18T20:21:35.845Z,10.92
2023-04-18T20:24:06.967Z,10.91
2023-04-18T20:26:39.316Z,10.80
2023-04-18T20:29:09.075Z,10.91
2023-04-18T20:31:42.428Z,11.33
2023-04-18T20:34:12.538Z,10.83
2023-04-18T20:36:42.867Z,10.97
2023-04-18T20:39:12.991Z,10.96
2023-04-18T20:41:47.411Z,11.71
2023-04-18T20:44:19.177Z,11.73
2023-04-18T20:46:49.040Z,11.43
2023-04-18T20:49:18.996Z,11.41
2023-04-18T20:51:48.739Z,11.43
2023-04-18T20:54:18.421Z,11.81
2023-04-18T20:56:50.657Z,11.32
2023-04-18T20:59:20.299Z,10.72
2023-04-18T21:01:50.062Z,10.95
2023-04-18T21:04:19.996Z,10.47
2023-04-18T21:06:50.014Z,10.57
2023-04-18T21:09:19.816Z,10.93
2023-04-18T21:11:52.027Z,10.65
2023-04-18T21:14:21.714Z,11.28
2023-04-18T21:16:51.372Z,10.86
2023-04-18T21:19:21.015Z,10.80
2023-04-18T21:21:50.776Z,10.85
2023-04-18T21:24:20.623Z,10.81
2023-04-18T21:26:52.854Z,11.02
2023-04-18T21:29:22.566Z,10.52
2023-04-18T21:31:52.564Z,10.85
2023-04-18T21:34:22.252Z,10.47
2023-04-18T21:36:51.909Z,10.74
2023-04-18T21:39:21.556Z,10.54
2023-04-18T21:41:53.826Z,10.60
2023-04-18T21:44:23.526Z,10.44
2023-04-18T21:46:53.194Z,10.36
2023-04-18T21:49:22.906Z,10.01
2023-04-18T21:51:52.601Z,10.53
2023-04-18T21:54:22.279Z,10.19
2023-04-18T21:56:54.541Z,10.51
2023-04-18T21:59:24.210Z,10.27
2023-04-18T22:01:53.872Z,10.31
2023-04-18T22:04:26.529Z,10.37
2023-04-18T22:06:57.001Z,10.33
2023-04-18T22:09:26.643Z,10.30
2023-04-18T22:11:59.715Z,10.13
2023-04-18T22:14:29.390Z,9.83
2023-04-18T22:16:59.477Z,10.09
2023-04-18T22:19:29.655Z,10.16
2023-04-18T22:21:59.375Z,9.98
2023-04-18T22:24:29.045Z,10.03
2023-04-18T22:27:02.926Z,9.98
2023-04-18T22:29:32.577Z,9.98
2023-04-18T22:32:02.217Z,10.02
2023-04-18T22:34:31.888Z,9.81
2023-04-18T22:37:01.607Z,9.62
2023-04-18T22:39:31.408Z,9.62
2023-04-18T22:42:03.704Z,9.81
2023-04-18T22:44:33.437Z,9.39
2023-04-18T22:47:03.389Z,9.40
2023-04-18T22:49:33.205Z,9.56
2023-04-18T22:52:02.892Z,9.26
2023-04-18T22:54:32.686Z,9.21
2023-04-18T22:57:04.950Z,9.84
2023-04-18T22:59:34.619Z,9.35
2023-04-18T23:02:04.457Z,9.69
2023-04-18T23:04:35.322Z,9.52
2023-04-18T23:07:05.325Z,9.22
2023-04-18T23:09:36.182Z,9.42
2023-04-18T23:12:08.760Z,9.20
2023-04-18T23:14:39.050Z,9.47
2023-04-18T23:17:08.712Z,9.91
2023-04-18T23:19:38.431Z,9.67
2023-04-18T23:22:08.114Z,9.77
2023-04-18T23:24:37.953Z,10.14
2023-04-18T23:27:10.232Z,9.96
2023-04-18T23:29:40.738Z,10.03
2023-04-18T23:32:10.515Z,9.90
2023-04-18T23:34:40.215Z,9.85
2023-04-18T23:37:09.958Z,9.11
2023-04-18T23:39:39.618Z,9.09
2023-04-18T23:42:11.913Z,8.84
2023-04-18T23:44:41.569Z,8.79
2023-04-18T23:47:11.499Z,8.82
2023-04-18T23:49:41.170Z,8.75
2023-04-18T23:52:10.913Z,9.42
2023-04-18T23:54:41.279Z,9.39
2023-04-18T23:57:13.514Z,9.53
2023-04-18T23:59:43.166Z,9.69
